sensor_id;sensor_type;location;lat;lon;timestamp;pressure;altitude;pressure_sealevel;temperature;humidity
26839;BME280;40088;51.214;6.786;2023-05-11T00:04:50;101105.00;;;18.34;63.30
26839;BME280;40088;51.214;6.786;2023-05-11T00:14:51;101104.13;;;18.34;63.23
26839;BME280;40088;51.214;6.786;2023-05-11T00:24:51;101107.94;;;18.33;63.15
26839;BME280;40088;51.214;6.786;2023-05-11T00:34:51;101112.41;;;18.34;63.20
26839;BME280;40088;51.214;6.786;2023-05-11T00:44:51;101110.72;;;18.33;63.38
26839;BME280;40088;51.214;6.786;2023-05-11T00:54:52;101116.22;;;18.33;63.21
26839;BME280;40088;51.214;6.786;2023-05-11T01:04:52;101119.00;;;18.33;63.29
26839;BME280;40088;51.214;6.786;2023-05-11T01:14:59;101127.28;;;18.33;63.26
26839;BME280;40088;51.214;6.786;2023-05-11T01:35:32;101123.66;;;18.32;63.25
26839;BME280;40088;51.214;6.786;2023-05-11T01:45:40;101119.00;;;18.33;63.25
26839;BME280;40088;51.214;6.786;2023-05-11T01:55:44;101120.03;;;18.32;63.36
26839;BME280;40088;51.214;6.786;2023-05-11T02:05:46;101118.13;;;18.32;63.26
26839;BME280;40088;51.214;6.786;2023-05-11T02:15:50;101124.72;;;18.31;63.23
26839;BME280;40088;51.214;6.786;2023-05-11T02:25:52;101122.81;;;18.32;63.34
26839;BME280;40088;51.214;6.786;2023-05-11T02:35:54;101120.03;;;18.32;63.28
26839;BME280;40088;51.214;6.786;2023-05-11T02:45:59;101105.41;;;18.31;63.33
26839;BME280;40088;51.214;6.786;2023-05-11T02:56:01;101103.50;;;18.32;63.58
26839;BME280;40088;51.214;6.786;2023-05-11T03:06:02;101113.69;;;18.31;63.32
26839;BME280;40088;51.214;6.786;2023-05-11T03:16:03;101110.91;;;18.31;63.32
26839;BME280;40088;51.214;6.786;2023-05-11T03:26:05;101120.03;;;18.32;63.28
26839;BME280;40088;51.214;6.786;2023-05-11T03:36:08;101119.19;;;18.31;63.21
26839;BME280;40088;51.214;6.786;2023-05-11T03:46:11;101116.22;;;18.33;63.34
26839;BME280;40088;51.214;6.786;2023-05-11T03:56:12;101115.59;;;18.31;63.41
26839;BME280;40088;51.214;6.786;2023-05-11T04:06:13;101112.63;;;18.32;63.21
26839;BME280;40088;51.214;6.786;2023-05-11T04:16:13;101116.44;;;18.31;63.32
26839;BME280;40088;51.214;6.786;2023-05-11T04:26:13;101117.50;;;18.30;63.28
26839;BME280;40088;51.214;6.786;2023-05-11T04:36:14;101130.22;;;18.31;63.29
26839;BME280;40088;51.214;6.786;2023-05-11T04:46:14;101131.09;;;18.32;63.10
26839;BME280;40088;51.214;6.786;2023-05-11T04:56:14;101137.66;;;18.31;63.17
26839;BME280;40088;51.214;6.786;2023-05-11T05:06:15;101149.53;;;18.31;63.20
26839;BME280;40088;51.214;6.786;2023-05-11T05:16:15;101160.38;;;18.33;62.98
26839;BME280;40088;51.214;6.786;2023-05-11T05:26:15;101170.75;;;18.31;63.25
26839;BME280;40088;51.214;6.786;2023-05-11T05:36:16;101168.84;;;18.31;63.38
26839;BME280;40088;51.214;6.786;2023-05-11T05:46:16;101189.03;;;18.32;63.17
26839;BME280;40088;51.214;6.786;2023-05-11T05:56:17;101192.63;;;18.32;63.48
26839;BME280;40088;51.214;6.786;2023-05-11T06:06:17;101197.28;;;18.32;63.22
26839;BME280;40088;51.214;6.786;2023-05-11T06:16:18;101192.63;;;18.32;63.22
26839;BME280;40088;51.214;6.786;2023-05-11T06:26:18;101206.44;;;18.32;63.29
26839;BME280;40088;51.214;6.786;2023-05-11T06:36:19;101192.63;;;18.32;63.14
26839;BME280;40088;51.214;6.786;2023-05-11T06:46:19;101193.47;;;18.33;63.15
26839;BME280;40088;51.214;6.786;2023-05-11T06:56:19;101193.47;;;18.33;63.21
26839;BME280;40088;51.214;6.786;2023-05-11T07:06:21;101191.78;;;18.32;63.27
26839;BME280;40088;51.214;6.786;2023-05-11T07:16:21;101193.47;;;18.33;63.27
26839;BME280;40088;51.214;6.786;2023-05-11T07:26:22;101198.16;;;18.32;63.22
26839;BME280;40088;51.214;6.786;2023-05-11T07:36:22;101201.75;;;18.33;63.35
26839;BME280;40088;51.214;6.786;2023-05-11T07:46:22;101211.94;;;18.32;63.31
26839;BME280;40088;51.214;6.786;2023-05-11T07:56:23;101211.94;;;18.32;63.27
26839;BME280;40088;51.214;6.786;2023-05-11T08:06:24;101202.81;;;18.32;63.31
26839;BME280;40088;51.214;6.786;2023-05-11T08:16:24;101209.19;;;18.32;63.22
26839;BME280;40088;51.214;6.786;2023-05-11T08:26:24;101212.78;;;18.33;63.31
26839;BME280;40088;51.214;6.786;2023-05-11T08:36:25;101210.03;;;18.33;62.98
26839;BME280;40088;51.214;6.786;2023-05-11T08:46:28;101211.09;;;18.32;62.97
26839;BME280;40088;51.214;6.786;2023-05-11T08:56:28;101216.41;;;18.33;63.26
26839;BME280;40088;51.214;6.786;2023-05-11T09:06:29;101214.69;;;18.32;63.14
26839;BME280;40088;51.214;6.786;2023-05-11T09:16:31;101221.91;;;18.33;63.22
26839;BME280;40088;51.214;6.786;2023-05-11T09:26:32;101220.22;;;18.32;63.16
26839;BME280;40088;51.214;6.786;2023-05-11T09:36:33;101216.41;;;18.33;63.19
26839;BME280;40088;51.214;6.786;2023-05-11T09:46:34;101215.56;;;18.33;63.09
26839;BME280;40088;51.214;6.786;2023-05-11T09:56:53;101221.06;;;18.33;63.14
26839;BME280;40088;51.214;6.786;2023-05-11T10:06:55;101225.53;;;18.34;63.13
26839;BME280;40088;51.214;6.786;2023-05-11T10:16:57;101223.81;;;18.33;63.21
26839;BME280;40088;51.214;6.786;2023-05-11T10:26:57;101208.97;;;18.34;63.09
26839;BME280;40088;51.214;6.786;2023-05-11T10:37:01;101209.84;;;18.34;62.99
26839;BME280;40088;51.214;6.786;2023-05-11T10:47:16;101213.66;;;18.33;63.13
26839;BME280;40088;51.214;6.786;2023-05-11T11:08:00;101205.38;;;18.33;62.90
26839;BME280;40088;51.214;6.786;2023-05-11T11:18:22;101193.47;;;18.33;63.04
26839;BME280;40088;51.214;6.786;2023-05-11T11:28:23;101189.66;;;18.34;63.02
26839;BME280;40088;51.214;6.786;2023-05-11T11:38:23;101189.66;;;18.34;62.95
26839;BME280;40088;51.214;6.786;2023-05-11T11:48:42;101181.38;;;18.34;62.98
26839;BME280;40088;51.214;6.786;2023-05-11T12:08:46;101185.84;;;18.35;62.74
26839;BME280;40088;51.214;6.786;2023-05-11T12:18:57;101179.47;;;18.34;63.00
26839;BME280;40088;51.214;6.786;2023-05-11T12:29:07;101178.63;;;18.34;62.85
26839;BME280;40088;51.214;6.786;2023-05-11T12:39:15;101173.13;;;18.34;63.07
26839;BME280;40088;51.214;6.786;2023-05-11T12:49:18;101161.22;;;18.33;63.09
26839;BME280;40088;51.214;6.786;2023-05-11T12:59:30;101151.91;;;18.34;63.02
26839;BME280;40088;51.214;6.786;2023-05-11T13:09:31;101145.53;;;18.34;62.80
26839;BME280;40088;51.214;6.786;2023-05-11T13:19:31;101140.00;;;18.34;62.87
26839;BME280;40088;51.214;6.786;2023-05-11T13:29:33;101134.47;;;18.34;62.69
26839;BME280;40088;51.214;6.786;2023-05-11T13:39:34;101134.47;;;18.34;62.85
26839;BME280;40088;51.214;6.786;2023-05-11T13:49:34;101125.16;;;18.35;62.87
26839;BME280;40088;51.214;6.786;2023-05-11T13:59:34;101117.94;;;18.34;62.82
26839;BME280;40088;51.214;6.786;2023-05-11T14:09:34;101120.69;;;18.34;62.84
26839;BME280;40088;51.214;6.786;2023-05-11T14:19:36;101117.94;;;18.34;62.85
26839;BME280;40088;51.214;6.786;2023-05-11T14:29:36;101113.09;;;18.36;62.91
26839;BME280;40088;51.214;6.786;2023-05-11T14:39:36;101110.50;;;18.34;62.77
26839;BME280;40088;51.214;6.786;2023-05-11T14:49:37;101114.13;;;18.35;62.70
26839;BME280;40088;51.214;6.786;2023-05-11T14:59:37;101122.41;;;18.35;62.65
26839;BME280;40088;51.214;6.786;2023-05-11T15:09:37;101108.59;;;18.35;62.73
26839;BME280;40088;51.214;6.786;2023-05-11T15:19:37;101120.53;;;18.35;62.80
26839;BME280;40088;51.214;6.786;2023-05-11T15:29:38;101126.88;;;18.36;62.84
26839;BME280;40088;51.214;6.786;2023-05-11T15:39:38;101140.69;;;18.36;62.69
26839;BME280;40088;51.214;6.786;2023-05-11T15:49:39;101146.19;;;18.36;62.89
26839;BME280;40088;51.214;6.786;2023-05-11T15:59:39;101149.81;;;18.36;62.53
26839;BME280;40088;51.214;6.786;2023-05-11T16:09:40;101156.19;;;18.37;62.63
26839;BME280;40088;51.214;6.786;2023-05-11T16:19:40;101154.47;;;18.36;62.81
26839;BME280;40088;51.214;6.786;2023-05-11T16:29:40;101164.47;;;18.37;62.87
26839;BME280;40088;51.214;6.786;2023-05-11T16:39:40;101171.03;;;18.36;62.75
26839;BME280;40088;51.214;6.786;2023-05-11T16:49:41;101178.25;;;18.37;62.95
26839;BME280;40088;51.214;6.786;2023-05-11T16:59:41;101171.88;;;18.36;63.02
26839;BME280;40088;51.214;6.786;2023-05-11T17:09:42;101164.47;;;18.37;63.15
26839;BME280;40088;51.214;6.786;2023-05-11T17:19:42;101171.03;;;18.36;63.01
26839;BME280;40088;51.214;6.786;2023-05-11T17:29:43;101164.47;;;18.37;62.97
26839;BME280;40088;51.214;6.786;2023-05-11T17:39:43;101168.06;;;18.37;63.09
26839;BME280;40088;51.214;6.786;2023-05-11T17:49:43;101161.69;;;18.37;63.11
26839;BME280;40088;51.214;6.786;2023-05-11T17:59:44;101156.19;;;18.37;63.12
26839;BME280;40088;51.214;6.786;2023-05-11T18:09:45;101153.41;;;18.37;63.27
26839;BME280;40088;51.214;6.786;2023-05-11T18:19:46;101165.31;;;18.37;63.32
26839;BME280;40088;51.214;6.786;2023-05-11T18:29:46;101163.41;;;18.38;63.08
26839;BME280;40088;51.214;6.786;2023-05-11T18:39:46;101175.28;;;18.38;63.24
26839;BME280;40088;51.214;6.786;2023-05-11T18:49:48;101182.72;;;18.38;63.27
26839;BME280;40088;51.214;6.786;2023-05-11T18:59:50;101188.22;;;18.38;63.41
26839;BME280;40088;51.214;6.786;2023-05-11T19:09:50;101201.19;;;18.37;63.33
26839;BME280;40088;51.214;6.786;2023-05-11T19:19:50;101207.53;;;18.38;63.21
26839;BME280;40088;51.214;6.786;2023-05-11T19:29:51;101216.88;;;18.37;63.38
26839;BME280;40088;51.214;6.786;2023-05-11T19:39:51;101218.59;;;18.38;63.30
26839;BME280;40088;51.214;6.786;2023-05-11T19:49:51;101229.63;;;18.38;63.43
26839;BME280;40088;51.214;6.786;2023-05-11T19:59:52;101229.63;;;18.38;63.56
26839;BME280;40088;51.214;6.786;2023-05-11T20:09:53;101226.88;;;18.38;63.35
26839;BME280;40088;51.214;6.786;2023-05-11T20:19:53;101235.13;;;18.38;63.50
26839;BME280;40088;51.214;6.786;2023-05-11T20:29:53;101234.28;;;18.37;63.41
26839;BME280;40088;51.214;6.786;2023-05-11T20:39:54;101227.91;;;18.37;63.42
26839;BME280;40088;51.214;6.786;2023-05-11T20:49:54;101228.78;;;18.37;63.54
26839;BME280;40088;51.214;6.786;2023-05-11T20:59:54;101216.69;;;18.38;63.63
26839;BME280;40088;51.214;6.786;2023-05-11T21:09:54;101214.13;;;18.37;63.56
26839;BME280;40088;51.214;6.786;2023-05-11T21:19:55;101203.94;;;18.37;63.64
26839;BME280;40088;51.214;6.786;2023-05-11T21:29:55;101208.41;;;18.38;63.51
26839;BME280;40088;51.214;6.786;2023-05-11T21:39:55;101208.19;;;18.40;63.53
26839;BME280;40088;51.214;6.786;2023-05-11T21:49:59;101204.59;;;18.39;63.64
26839;BME280;40088;51.214;6.786;2023-05-11T21:59:59;101208.41;;;18.38;63.58
26839;BME280;40088;51.214;6.786;2023-05-11T22:09:59;101202.88;;;18.38;63.87
26839;BME280;40088;51.214;6.786;2023-05-11T22:20:00;101191.00;;;18.38;63.67
26839;BME280;40088;51.214;6.786;2023-05-11T22:30:00;101182.50;;;18.39;63.66
26839;BME280;40088;51.214;6.786;2023-05-11T22:40:01;101181.66;;;18.39;63.81
26839;BME280;40088;51.214;6.786;2023-05-11T22:50:01;101179.97;;;18.38;63.59
26839;BME280;40088;51.214;6.786;2023-05-11T23:00:01;101177.19;;;18.38;63.86
26839;BME280;40088;51.214;6.786;2023-05-11T23:10:03;101171.69;;;18.38;63.95
26839;BME280;40088;51.214;6.786;2023-05-11T23:20:03;101160.63;;;18.38;63.86
26839;BME280;40088;51.214;6.786;2023-05-11T23:30:05;101149.59;;;18.38;63.88
26839;BME280;40088;51.214;6.786;2023-05-11T23:40:06;101149.59;;;18.38;63.88
26839;BME280;40088;51.214;6.786;2023-05-11T23:50:10;101137.72;;;18.37;63.95
